Current Weather

Salisbury-Ocean City Wicomico Rgnl

Salisbury, Maryland (KSBY)

Report from: Saturday, July 13, 2024 9:29 PM EDT
Current time: Saturday, July 13, 2024 9:48 PM EDT

Nearby weather – Weather history – Daily summaries
Weather forecast

Temperature24.4°C (75.9°F)
Dew point24.4°C (75.9°F)
Winds Calm
Visibility10 mi. (16.1 km)
Clouds Ceiling: Broken clouds 1,100 ft. (335 m)
Altimeter30.09 in.Hg (1019 mB)
Relative humidity100 %
Density altitude1,306 ft. (398 m)
Remarks Automated weather observing station with precipitation discriminator
Ceiling
Flight conditions Marginal Visual Meteorological Conditions
Raw dataKSBY 140129Z 00000KT 10SM BKN011 24/24 A3009 RMK AO2 CIG 007V013 T02440244
An error has occurred. This application may no longer respond until reloaded. Reload 🗙